Startpagina
METAR-TAF:

METAR-TAF

Vliegvelden :

Internationale luchthaven Juan Santamaría

San José, Costa Rica

breedte: 10-00N, lengte: 084-13W, hoogte: 920 m

Actueel weer

Dit bericht is 51 minuten geleden gemaakt, om 07:00 UTC
Wind 11 kt uit het oostzuidoosten
Temperatuur 20°C
Vochtigheid 73%
Druk 1016 hPa
Zicht 10 km of meer
geen wolken onder 1500 m en geen cumulonimbus

METAR: MROC 210700Z 11011KT CAVOK 20/15 A3000 NOSIG

Tijdstip: 01:51 (07:51 UTC)

Verwachting

Dit bericht is 2 uur en het 51 minuten geleden gemaakt, om 05:00 UTC
Verwachting geldig van 21 om 06 UTC tot 22 om 06 UTC
Wind 9 kt uit het oosten
Zicht 10 km of meer
geen wolken onder 1500 m en geen cumulonimbus
Wijzigt naar
van 21 om 16 UTC tot 21 om 19 UTC
Wind 9 kt uit het westzuidwesten
Tijdelijke
van 21 om 21 UTC tot 22 om 01 UTC
Gebroken wolken op 1500 ft

TAF: MROC 210500Z 2106/2206 10009KT CAVOK TX27/2119Z TN19/2111Z BECMG 2116/2119 24009KT TEMPO 2121/2201 BKN015

Waarnemingen en weersverwachtingen van meer dan 4000 vliegvelden (METAR en TAF).

De beschikbare stations zijn de gele en rode punten op de kaart.

Ga met uw muis naar het station om de naam te zien.

Klik dan om waarnemingen en weersverwachtingen te zien.

kaart wijzigen: klik op de groene knoppen met een zwart kruis om in te zoomen, op de groene knop met een streepje om uit te zoomen of op de groene pijlen voor aangrenzende kaarten.


METAR-TAF: